In Rescue
 
Open Full Screen Window  High Contrast Mode
Wind Gusting 11 knots
04
February 24, 2020 5:55 PM EST
Present Weather: Light Rain
Weather Information
Wind Direction
  VRB °
Wind Speed
  04 kt (5 mph)
Wind Gust
  11 kt (13 mph)
Altimeter
29.80 in
Visibility
10 SM
Temperature
07° C
45° F
Dewpoint
05° C
41° F
Humidity
87%
1hr Rain Fall
00.00 in.
24hr Rain Fall
00.06 in.
Sky Condition
Overcast @ 2,500 ft
Broken @ 2,100 ft
MVFR

METAR KSYM 242255Z AUTO VRB04G11KT 10SM -RA BKN021 OVC025 07/05 A2980 RMK AO2

FAA Disclaimer: The data displayed is for advisory purposes only and is not to be used for flight planning or operations.